Terminal Aerodrome Forecast
Issued by NWS

Current Version | Previous Version | Text Only | Print | Product List | Glossary On
Versions: 1 2 3 4 5 6 7 8 9 10 11 12 13 14 15 16 17 18 19
000
FTAK31 PANC 241136
TAFATK
TAF
PATK 241136Z 2412/2512 VRB03KT P6SM -RA SCT005 OVC070
     FM241800 00000KT 5SM -RA BR SCT015 OVC035
     FM250600 00000KT P6SM -RA OVC050=

USA.gov is the U.S. government's official web portal to all federal, state and local government web resources and services.